sensor_id;sensor_type;location;lat;lon;timestamp;temperature;humidity
58554;DHT22;48119;53.218;6.576;2023-02-28T00:01:22;8.60;99.90
58554;DHT22;48119;53.218;6.576;2023-02-28T00:03:50;8.50;99.90
58554;DHT22;48119;53.218;6.576;2023-02-28T00:06:18;8.60;99.90
58554;DHT22;48119;53.218;6.576;2023-02-28T00:08:47;8.60;99.90
58554;DHT22;48119;53.218;6.576;2023-02-28T00:11:14;8.60;99.90
58554;DHT22;48119;53.218;6.576;2023-02-28T00:13:42;8.60;99.90
58554;DHT22;48119;53.218;6.576;2023-02-28T00:16:14;8.60;99.90
58554;DHT22;48119;53.218;6.576;2023-02-28T00:18:41;8.60;99.90
58554;DHT22;48119;53.218;6.576;2023-02-28T00:21:07;8.60;99.90
58554;DHT22;48119;53.218;6.576;2023-02-28T00:23:37;8.60;99.90
58554;DHT22;48119;53.218;6.576;2023-02-28T00:26:03;8.60;99.90
58554;DHT22;48119;53.218;6.576;2023-02-28T00:28:29;8.70;99.90
58554;DHT22;48119;53.218;6.576;2023-02-28T00:30:55;8.70;99.90
58554;DHT22;48119;53.218;6.576;2023-02-28T00:33:22;8.70;99.90
58554;DHT22;48119;53.218;6.576;2023-02-28T00:35:48;8.70;99.90
58554;DHT22;48119;53.218;6.576;2023-02-28T00:38:17;8.70;99.90
58554;DHT22;48119;53.218;6.576;2023-02-28T00:40:42;8.70;99.90
58554;DHT22;48119;53.218;6.576;2023-02-28T00:43:11;8.70;99.90
58554;DHT22;48119;53.218;6.576;2023-02-28T00:45:38;8.70;99.90
58554;DHT22;48119;53.218;6.576;2023-02-28T00:48:04;8.70;99.90
58554;DHT22;48119;53.218;6.576;2023-02-28T00:50:31;8.70;99.90
58554;DHT22;48119;53.218;6.576;2023-02-28T00:52:57;8.70;99.90
58554;DHT22;48119;53.218;6.576;2023-02-28T00:55:25;8.70;99.90
58554;DHT22;48119;53.218;6.576;2023-02-28T00:57:51;8.70;99.90
58554;DHT22;48119;53.218;6.576;2023-02-28T01:00:17;8.70;99.90
58554;DHT22;48119;53.218;6.576;2023-02-28T01:02:43;8.70;99.90
58554;DHT22;48119;53.218;6.576;2023-02-28T01:05:09;8.70;99.90
58554;DHT22;48119;53.218;6.576;2023-02-28T01:07:35;8.70;99.90
58554;DHT22;48119;53.218;6.576;2023-02-28T01:10:01;8.70;99.90
58554;DHT22;48119;53.218;6.576;2023-02-28T01:12:27;8.70;99.90
58554;DHT22;48119;53.218;6.576;2023-02-28T01:14:53;8.70;99.90
58554;DHT22;48119;53.218;6.576;2023-02-28T01:17:19;8.80;99.90
58554;DHT22;48119;53.218;6.576;2023-02-28T01:19:45;8.80;99.90
58554;DHT22;48119;53.218;6.576;2023-02-28T01:22:10;8.80;99.90
58554;DHT22;48119;53.218;6.576;2023-02-28T01:24:37;8.70;99.90
58554;DHT22;48119;53.218;6.576;2023-02-28T01:27:03;8.80;99.90
58554;DHT22;48119;53.218;6.576;2023-02-28T01:29:29;8.70;99.90
58554;DHT22;48119;53.218;6.576;2023-02-28T01:31:54;8.70;99.90
58554;DHT22;48119;53.218;6.576;2023-02-28T01:34:24;8.70;99.90
58554;DHT22;48119;53.218;6.576;2023-02-28T01:36:50;8.80;99.90
58554;DHT22;48119;53.218;6.576;2023-02-28T01:39:16;8.80;99.90
58554;DHT22;48119;53.218;6.576;2023-02-28T01:41:42;8.80;99.90
58554;DHT22;48119;53.218;6.576;2023-02-28T01:47:12;8.80;99.90
58554;DHT22;48119;53.218;6.576;2023-02-28T01:49:38;8.80;99.90
58554;DHT22;48119;53.218;6.576;2023-02-28T01:52:04;8.80;99.90
58554;DHT22;48119;53.218;6.576;2023-02-28T01:54:31;8.80;99.90
58554;DHT22;48119;53.218;6.576;2023-02-28T01:57:06;8.90;99.90
58554;DHT22;48119;53.218;6.576;2023-02-28T01:59:43;8.90;99.90
58554;DHT22;48119;53.218;6.576;2023-02-28T02:02:14;8.80;99.90
58554;DHT22;48119;53.218;6.576;2023-02-28T02:07:23;8.80;99.90
58554;DHT22;48119;53.218;6.576;2023-02-28T02:09:50;8.80;99.90
58554;DHT22;48119;53.218;6.576;2023-02-28T02:32:21;8.80;99.90
58554;DHT22;48119;53.218;6.576;2023-02-28T02:35:06;8.80;99.90
58554;DHT22;48119;53.218;6.576;2023-02-28T02:37:48;8.80;99.90
58554;DHT22;48119;53.218;6.576;2023-02-28T02:40:19;8.70;99.90
58554;DHT22;48119;53.218;6.576;2023-02-28T02:42:58;8.70;99.90
58554;DHT22;48119;53.218;6.576;2023-02-28T02:45:47;8.70;99.90
58554;DHT22;48119;53.218;6.576;2023-02-28T02:48:17;8.70;99.90
58554;DHT22;48119;53.218;6.576;2023-02-28T02:50:52;8.70;99.90
58554;DHT22;48119;53.218;6.576;2023-02-28T02:53:23;8.70;99.90
58554;DHT22;48119;53.218;6.576;2023-02-28T02:55:51;8.70;99.90
58554;DHT22;48119;53.218;6.576;2023-02-28T02:58:24;8.70;99.90
58554;DHT22;48119;53.218;6.576;2023-02-28T03:00:55;8.70;99.90
58554;DHT22;48119;53.218;6.576;2023-02-28T03:03:23;8.70;99.90
58554;DHT22;48119;53.218;6.576;2023-02-28T03:05:59;8.60;99.90
58554;DHT22;48119;53.218;6.576;2023-02-28T03:08:27;8.60;99.90
58554;DHT22;48119;53.218;6.576;2023-02-28T03:11:02;8.60;99.90
58554;DHT22;48119;53.218;6.576;2023-02-28T03:13:42;8.60;99.90
58554;DHT22;48119;53.218;6.576;2023-02-28T03:19:31;8.60;99.90
58554;DHT22;48119;53.218;6.576;2023-02-28T03:22:17;8.60;99.90
58554;DHT22;48119;53.218;6.576;2023-02-28T03:24:54;8.60;99.90
58554;DHT22;48119;53.218;6.576;2023-02-28T03:27:30;8.60;99.90
58554;DHT22;48119;53.218;6.576;2023-02-28T03:30:09;8.60;99.90
58554;DHT22;48119;53.218;6.576;2023-02-28T03:32:58;8.50;99.90
58554;DHT22;48119;53.218;6.576;2023-02-28T03:35:36;8.50;99.90
58554;DHT22;48119;53.218;6.576;2023-02-28T03:38:13;8.50;99.90
58554;DHT22;48119;53.218;6.576;2023-02-28T03:40:50;8.50;99.90
58554;DHT22;48119;53.218;6.576;2023-02-28T03:43:25;8.50;99.90
58554;DHT22;48119;53.218;6.576;2023-02-28T03:45:55;8.50;99.90
58554;DHT22;48119;53.218;6.576;2023-02-28T03:48:33;8.50;99.90
58554;DHT22;48119;53.218;6.576;2023-02-28T03:51:08;8.50;99.90
58554;DHT22;48119;53.218;6.576;2023-02-28T03:53:39;8.40;99.90
58554;DHT22;48119;53.218;6.576;2023-02-28T03:56:18;8.40;99.90
58554;DHT22;48119;53.218;6.576;2023-02-28T03:58:54;8.40;99.90
58554;DHT22;48119;53.218;6.576;2023-02-28T04:01:28;8.40;99.90
58554;DHT22;48119;53.218;6.576;2023-02-28T04:03:56;8.30;99.90
58554;DHT22;48119;53.218;6.576;2023-02-28T04:06:23;8.30;99.90
58554;DHT22;48119;53.218;6.576;2023-02-28T04:08:50;8.30;99.90
58554;DHT22;48119;53.218;6.576;2023-02-28T04:11:36;8.30;99.90
58554;DHT22;48119;53.218;6.576;2023-02-28T04:14:03;8.30;99.90
58554;DHT22;48119;53.218;6.576;2023-02-28T04:16:34;8.20;99.90
58554;DHT22;48119;53.218;6.576;2023-02-28T04:19:00;8.20;99.90
58554;DHT22;48119;53.218;6.576;2023-02-28T04:21:46;8.20;99.90
58554;DHT22;48119;53.218;6.576;2023-02-28T04:24:18;8.20;99.90
58554;DHT22;48119;53.218;6.576;2023-02-28T04:26:53;8.20;99.90
58554;DHT22;48119;53.218;6.576;2023-02-28T04:29:30;8.20;99.90
58554;DHT22;48119;53.218;6.576;2023-02-28T04:31:58;8.10;99.90
58554;DHT22;48119;53.218;6.576;2023-02-28T04:34:26;8.10;99.90
58554;DHT22;48119;53.218;6.576;2023-02-28T04:36:54;8.10;99.90
58554;DHT22;48119;53.218;6.576;2023-02-28T04:39:21;8.10;99.90
58554;DHT22;48119;53.218;6.576;2023-02-28T04:41:47;8.00;99.90
58554;DHT22;48119;53.218;6.576;2023-02-28T04:44:14;8.00;99.90
58554;DHT22;48119;53.218;6.576;2023-02-28T04:46:41;8.00;99.90
58554;DHT22;48119;53.218;6.576;2023-02-28T04:49:08;8.00;99.90
58554;DHT22;48119;53.218;6.576;2023-02-28T04:51:38;8.00;99.90
58554;DHT22;48119;53.218;6.576;2023-02-28T04:54:05;8.10;99.90
58554;DHT22;48119;53.218;6.576;2023-02-28T04:56:30;8.10;99.90
58554;DHT22;48119;53.218;6.576;2023-02-28T04:58:56;8.00;99.90
58554;DHT22;48119;53.218;6.576;2023-02-28T05:03:52;8.00;99.90
58554;DHT22;48119;53.218;6.576;2023-02-28T05:06:19;8.00;99.90
58554;DHT22;48119;53.218;6.576;2023-02-28T05:08:46;8.00;99.90
58554;DHT22;48119;53.218;6.576;2023-02-28T05:11:33;8.00;99.90
58554;DHT22;48119;53.218;6.576;2023-02-28T05:14:03;8.00;99.90
58554;DHT22;48119;53.218;6.576;2023-02-28T05:16:30;7.90;99.90
58554;DHT22;48119;53.218;6.576;2023-02-28T05:18:56;7.90;99.90
58554;DHT22;48119;53.218;6.576;2023-02-28T05:24:01;7.90;99.90
58554;DHT22;48119;53.218;6.576;2023-02-28T05:26:28;7.90;99.90
58554;DHT22;48119;53.218;6.576;2023-02-28T05:28:54;7.90;99.90
58554;DHT22;48119;53.218;6.576;2023-02-28T05:31:20;7.90;99.90
58554;DHT22;48119;53.218;6.576;2023-02-28T05:33:46;7.90;99.90
58554;DHT22;48119;53.218;6.576;2023-02-28T05:36:12;8.00;99.90
58554;DHT22;48119;53.218;6.576;2023-02-28T05:38:40;7.90;99.90
58554;DHT22;48119;53.218;6.576;2023-02-28T05:41:10;7.80;99.90
58554;DHT22;48119;53.218;6.576;2023-02-28T05:43:37;7.80;99.90
58554;DHT22;48119;53.218;6.576;2023-02-28T05:46:04;7.80;99.90
58554;DHT22;48119;53.218;6.576;2023-02-28T05:48:31;7.70;99.90
58554;DHT22;48119;53.218;6.576;2023-02-28T05:50:57;7.80;99.90
58554;DHT22;48119;53.218;6.576;2023-02-28T05:53:23;7.70;99.90
58554;DHT22;48119;53.218;6.576;2023-02-28T05:55:49;7.70;99.90
58554;DHT22;48119;53.218;6.576;2023-02-28T05:58:22;7.80;99.90
58554;DHT22;48119;53.218;6.576;2023-02-28T06:00:48;7.70;99.90
58554;DHT22;48119;53.218;6.576;2023-02-28T06:03:14;7.70;99.90
58554;DHT22;48119;53.218;6.576;2023-02-28T06:05:42;7.70;99.90
58554;DHT22;48119;53.218;6.576;2023-02-28T06:08:11;7.70;99.90
58554;DHT22;48119;53.218;6.576;2023-02-28T06:10:37;7.70;99.90
58554;DHT22;48119;53.218;6.576;2023-02-28T06:13:04;7.60;99.90
58554;DHT22;48119;53.218;6.576;2023-02-28T06:15:30;7.60;99.90
58554;DHT22;48119;53.218;6.576;2023-02-28T06:17:57;7.70;99.90
58554;DHT22;48119;53.218;6.576;2023-02-28T06:20:24;7.60;99.90
58554;DHT22;48119;53.218;6.576;2023-02-28T06:22:50;7.80;99.90
58554;DHT22;48119;53.218;6.576;2023-02-28T06:25:17;7.70;99.90
58554;DHT22;48119;53.218;6.576;2023-02-28T06:27:43;7.60;99.90
58554;DHT22;48119;53.218;6.576;2023-02-28T06:30:10;7.60;99.90
58554;DHT22;48119;53.218;6.576;2023-02-28T06:32:36;7.70;99.90
58554;DHT22;48119;53.218;6.576;2023-02-28T06:35:03;7.70;99.90
58554;DHT22;48119;53.218;6.576;2023-02-28T06:37:30;7.70;99.90
58554;DHT22;48119;53.218;6.576;2023-02-28T06:39:56;7.70;99.90
58554;DHT22;48119;53.218;6.576;2023-02-28T06:42:23;7.60;99.90
58554;DHT22;48119;53.218;6.576;2023-02-28T06:44:56;7.60;99.90
58554;DHT22;48119;53.218;6.576;2023-02-28T06:47:25;7.60;99.90
58554;DHT22;48119;53.218;6.576;2023-02-28T06:49:52;7.60;99.90
58554;DHT22;48119;53.218;6.576;2023-02-28T06:52:17;7.60;99.90
58554;DHT22;48119;53.218;6.576;2023-02-28T06:54:43;7.60;99.90
58554;DHT22;48119;53.218;6.576;2023-02-28T06:57:09;7.70;99.90
58554;DHT22;48119;53.218;6.576;2023-02-28T06:59:35;7.60;99.90
58554;DHT22;48119;53.218;6.576;2023-02-28T07:02:01;7.50;99.90
58554;DHT22;48119;53.218;6.576;2023-02-28T07:04:28;7.50;99.90
58554;DHT22;48119;53.218;6.576;2023-02-28T07:06:55;7.50;99.90
58554;DHT22;48119;53.218;6.576;2023-02-28T07:09:22;7.50;99.90
58554;DHT22;48119;53.218;6.576;2023-02-28T07:11:48;7.40;99.90
58554;DHT22;48119;53.218;6.576;2023-02-28T07:14:14;7.40;99.90
58554;DHT22;48119;53.218;6.576;2023-02-28T07:16:40;7.40;99.90
58554;DHT22;48119;53.218;6.576;2023-02-28T07:19:06;7.50;99.90
58554;DHT22;48119;53.218;6.576;2023-02-28T07:21:32;7.40;99.90
58554;DHT22;48119;53.218;6.576;2023-02-28T07:23:58;7.40;99.90
58554;DHT22;48119;53.218;6.576;2023-02-28T07:26:23;7.50;99.90
58554;DHT22;48119;53.218;6.576;2023-02-28T07:28:49;7.40;99.90
58554;DHT22;48119;53.218;6.576;2023-02-28T07:31:16;7.40;99.90
58554;DHT22;48119;53.218;6.576;2023-02-28T07:33:45;7.40;99.90
58554;DHT22;48119;53.218;6.576;2023-02-28T07:36:13;7.30;99.90
58554;DHT22;48119;53.218;6.576;2023-02-28T07:38:41;7.30;99.90
58554;DHT22;48119;53.218;6.576;2023-02-28T07:41:11;7.30;99.90
58554;DHT22;48119;53.218;6.576;2023-02-28T07:43:38;7.40;99.90
58554;DHT22;48119;53.218;6.576;2023-02-28T07:46:09;7.40;99.90
58554;DHT22;48119;53.218;6.576;2023-02-28T07:48:36;7.40;99.90
58554;DHT22;48119;53.218;6.576;2023-02-28T07:51:02;7.50;99.90
58554;DHT22;48119;53.218;6.576;2023-02-28T07:53:32;7.40;99.90
58554;DHT22;48119;53.218;6.576;2023-02-28T07:55:59;7.40;99.90
58554;DHT22;48119;53.218;6.576;2023-02-28T07:58:25;7.40;99.90
58554;DHT22;48119;53.218;6.576;2023-02-28T08:00:51;7.40;99.90
58554;DHT22;48119;53.218;6.576;2023-02-28T08:03:21;7.50;99.90
58554;DHT22;48119;53.218;6.576;2023-02-28T08:05:51;7.50;99.90
58554;DHT22;48119;53.218;6.576;2023-02-28T08:08:18;7.50;99.90
58554;DHT22;48119;53.218;6.576;2023-02-28T08:10:44;7.50;99.90
58554;DHT22;48119;53.218;6.576;2023-02-28T08:13:09;7.50;99.90
58554;DHT22;48119;53.218;6.576;2023-02-28T08:15:39;7.40;99.90
58554;DHT22;48119;53.218;6.576;2023-02-28T08:18:08;7.40;99.90
58554;DHT22;48119;53.218;6.576;2023-02-28T08:20:34;7.40;99.90
58554;DHT22;48119;53.218;6.576;2023-02-28T08:23:00;7.40;99.90
58554;DHT22;48119;53.218;6.576;2023-02-28T08:25:26;7.40;99.90
58554;DHT22;48119;53.218;6.576;2023-02-28T08:27:52;7.50;99.90
58554;DHT22;48119;53.218;6.576;2023-02-28T08:30:18;7.50;99.90
58554;DHT22;48119;53.218;6.576;2023-02-28T08:32:44;7.50;99.90
58554;DHT22;48119;53.218;6.576;2023-02-28T08:35:10;7.50;99.90
58554;DHT22;48119;53.218;6.576;2023-02-28T08:37:39;7.50;99.90
58554;DHT22;48119;53.218;6.576;2023-02-28T08:40:05;7.50;99.90
58554;DHT22;48119;53.218;6.576;2023-02-28T08:42:32;7.50;99.90
58554;DHT22;48119;53.218;6.576;2023-02-28T08:44:58;7.60;99.90
58554;DHT22;48119;53.218;6.576;2023-02-28T08:47:23;7.60;99.90
58554;DHT22;48119;53.218;6.576;2023-02-28T08:49:49;7.60;99.90
58554;DHT22;48119;53.218;6.576;2023-02-28T08:52:15;7.60;99.90
58554;DHT22;48119;53.218;6.576;2023-02-28T08:54:41;7.60;99.90
58554;DHT22;48119;53.218;6.576;2023-02-28T08:57:07;7.60;99.90
58554;DHT22;48119;53.218;6.576;2023-02-28T08:59:33;7.70;99.90
58554;DHT22;48119;53.218;6.576;2023-02-28T09:02:02;7.70;99.90
58554;DHT22;48119;53.218;6.576;2023-02-28T09:04:28;7.70;99.90
58554;DHT22;48119;53.218;6.576;2023-02-28T09:06:56;7.80;99.90
58554;DHT22;48119;53.218;6.576;2023-02-28T09:09:25;7.70;99.90
58554;DHT22;48119;53.218;6.576;2023-02-28T09:11:51;7.70;99.90
58554;DHT22;48119;53.218;6.576;2023-02-28T09:14:17;7.80;99.90
58554;DHT22;48119;53.218;6.576;2023-02-28T09:16:43;7.70;99.90
58554;DHT22;48119;53.218;6.576;2023-02-28T09:19:11;7.80;99.90
58554;DHT22;48119;53.218;6.576;2023-02-28T09:21:37;7.80;99.90
58554;DHT22;48119;53.218;6.576;2023-02-28T09:24:03;7.80;99.90
58554;DHT22;48119;53.218;6.576;2023-02-28T09:26:32;7.80;99.90
58554;DHT22;48119;53.218;6.576;2023-02-28T09:28:58;7.80;99.90
58554;DHT22;48119;53.218;6.576;2023-02-28T09:31:28;7.80;99.90
58554;DHT22;48119;53.218;6.576;2023-02-28T09:33:56;7.90;99.90
58554;DHT22;48119;53.218;6.576;2023-02-28T09:36:24;7.80;99.90
58554;DHT22;48119;53.218;6.576;2023-02-28T09:38:50;7.90;99.90
58554;DHT22;48119;53.218;6.576;2023-02-28T09:41:35;7.90;99.90
58554;DHT22;48119;53.218;6.576;2023-02-28T09:44:04;7.90;99.90
58554;DHT22;48119;53.218;6.576;2023-02-28T09:46:40;7.90;99.90
58554;DHT22;48119;53.218;6.576;2023-02-28T09:49:19;7.90;99.90
58554;DHT22;48119;53.218;6.576;2023-02-28T09:52:04;8.00;99.90
58554;DHT22;48119;53.218;6.576;2023-02-28T09:54:32;8.00;99.90
58554;DHT22;48119;53.218;6.576;2023-02-28T10:08:55;8.10;99.90
58554;DHT22;48119;53.218;6.576;2023-02-28T10:11:25;8.10;99.90
58554;DHT22;48119;53.218;6.576;2023-02-28T10:19:16;8.20;99.80
58554;DHT22;48119;53.218;6.576;2023-02-28T10:21:48;8.30;99.70
58554;DHT22;48119;53.218;6.576;2023-02-28T10:24:26;8.30;99.70
58554;DHT22;48119;53.218;6.576;2023-02-28T10:26:59;8.30;99.40
58554;DHT22;48119;53.218;6.576;2023-02-28T10:29:26;8.40;99.40
58554;DHT22;48119;53.218;6.576;2023-02-28T10:31:55;8.40;99.20
58554;DHT22;48119;53.218;6.576;2023-02-28T10:34:24;8.50;98.70
58554;DHT22;48119;53.218;6.576;2023-02-28T10:36:50;8.50;98.10
58554;DHT22;48119;53.218;6.576;2023-02-28T10:39:52;8.60;98.10
58554;DHT22;48119;53.218;6.576;2023-02-28T10:44:47;8.60;97.70
58554;DHT22;48119;53.218;6.576;2023-02-28T10:47:17;8.70;97.60
58554;DHT22;48119;53.218;6.576;2023-02-28T10:49:49;8.70;97.50
58554;DHT22;48119;53.218;6.576;2023-02-28T10:52:39;8.80;97.60
58554;DHT22;48119;53.218;6.576;2023-02-28T10:55:21;8.80;97.50
58554;DHT22;48119;53.218;6.576;2023-02-28T10:57:48;8.90;97.40
58554;DHT22;48119;53.218;6.576;2023-02-28T11:02:47;9.00;96.40
58554;DHT22;48119;53.218;6.576;2023-02-28T11:05:32;9.00;95.90
58554;DHT22;48119;53.218;6.576;2023-02-28T11:08:15;9.10;95.50
58554;DHT22;48119;53.218;6.576;2023-02-28T11:10:46;9.10;95.60
58554;DHT22;48119;53.218;6.576;2023-02-28T11:13:21;9.10;95.20
58554;DHT22;48119;53.218;6.576;2023-02-28T11:15:57;9.20;95.30
58554;DHT22;48119;53.218;6.576;2023-02-28T11:18:31;9.10;95.30
58554;DHT22;48119;53.218;6.576;2023-02-28T11:21:00;9.20;95.30
58554;DHT22;48119;53.218;6.576;2023-02-28T11:23:30;9.20;95.30
58554;DHT22;48119;53.218;6.576;2023-02-28T11:26:01;9.20;94.50
58554;DHT22;48119;53.218;6.576;2023-02-28T11:28:36;9.20;94.00
58554;DHT22;48119;53.218;6.576;2023-02-28T11:31:16;9.20;93.50
58554;DHT22;48119;53.218;6.576;2023-02-28T11:33:53;9.20;93.20
58554;DHT22;48119;53.218;6.576;2023-02-28T11:36:25;9.20;93.80
58554;DHT22;48119;53.218;6.576;2023-02-28T11:38:53;9.20;93.60
58554;DHT22;48119;53.218;6.576;2023-02-28T11:46:52;9.20;93.80
58554;DHT22;48119;53.218;6.576;2023-02-28T11:49:23;9.20;93.70
58554;DHT22;48119;53.218;6.576;2023-02-28T11:52:01;9.30;93.80
58554;DHT22;48119;53.218;6.576;2023-02-28T11:57:08;9.40;94.10
58554;DHT22;48119;53.218;6.576;2023-02-28T12:11:40;9.50;92.60
58554;DHT22;48119;53.218;6.576;2023-02-28T12:17:10;9.50;92.50
58554;DHT22;48119;53.218;6.576;2023-02-28T12:19:47;9.60;92.90
58554;DHT22;48119;53.218;6.576;2023-02-28T12:22:27;9.60;92.70
58554;DHT22;48119;53.218;6.576;2023-02-28T12:27:41;9.80;92.90
58554;DHT22;48119;53.218;6.576;2023-02-28T12:30:28;9.80;92.90
58554;DHT22;48119;53.218;6.576;2023-02-28T12:35:55;9.90;92.30
58554;DHT22;48119;53.218;6.576;2023-02-28T12:38:29;9.80;91.10
58554;DHT22;48119;53.218;6.576;2023-02-28T12:41:02;9.80;91.60
58554;DHT22;48119;53.218;6.576;2023-02-28T12:43:45;9.80;91.70
58554;DHT22;48119;53.218;6.576;2023-02-28T12:46:32;9.80;91.60
58554;DHT22;48119;53.218;6.576;2023-02-28T12:49:25;9.70;91.60
58554;DHT22;48119;53.218;6.576;2023-02-28T12:51:56;9.70;91.00
58554;DHT22;48119;53.218;6.576;2023-02-28T12:54:47;9.70;91.70
58554;DHT22;48119;53.218;6.576;2023-02-28T13:02:41;9.70;91.70
58554;DHT22;48119;53.218;6.576;2023-02-28T13:05:28;9.70;91.20
58554;DHT22;48119;53.218;6.576;2023-02-28T13:09:25;9.70;91.30
58554;DHT22;48119;53.218;6.576;2023-02-28T13:11:33;9.60;91.40
58554;DHT22;48119;53.218;6.576;2023-02-28T13:14:37;9.60;91.60
58554;DHT22;48119;53.218;6.576;2023-02-28T13:19:59;9.70;91.90
58554;DHT22;48119;53.218;6.576;2023-02-28T13:22:44;9.70;91.90
58554;DHT22;48119;53.218;6.576;2023-02-28T13:28:11;9.70;91.80
58554;DHT22;48119;53.218;6.576;2023-02-28T13:33:30;9.70;91.60
58554;DHT22;48119;53.218;6.576;2023-02-28T13:38:56;9.80;91.60
58554;DHT22;48119;53.218;6.576;2023-02-28T13:44:10;9.80;91.30
58554;DHT22;48119;53.218;6.576;2023-02-28T13:49:31;9.70;91.00
58554;DHT22;48119;53.218;6.576;2023-02-28T13:54:43;9.80;91.30
58554;DHT22;48119;53.218;6.576;2023-02-28T14:08:35;9.70;90.00
58554;DHT22;48119;53.218;6.576;2023-02-28T14:11:33;9.70;90.80
58554;DHT22;48119;53.218;6.576;2023-02-28T14:14:02;9.70;90.60
58554;DHT22;48119;53.218;6.576;2023-02-28T14:16:44;9.70;90.70
58554;DHT22;48119;53.218;6.576;2023-02-28T14:19:28;9.70;90.50
58554;DHT22;48119;53.218;6.576;2023-02-28T14:22:21;9.70;90.50
58554;DHT22;48119;53.218;6.576;2023-02-28T14:31:15;9.70;90.40
58554;DHT22;48119;53.218;6.576;2023-02-28T14:36:40;9.80;89.30
58554;DHT22;48119;53.218;6.576;2023-02-28T14:39:14;9.80;89.70
58554;DHT22;48119;53.218;6.576;2023-02-28T14:41:46;9.80;89.30
58554;DHT22;48119;53.218;6.576;2023-02-28T14:44:21;9.80;89.40
58554;DHT22;48119;53.218;6.576;2023-02-28T14:46:53;9.80;89.80
58554;DHT22;48119;53.218;6.576;2023-02-28T14:52:15;9.80;90.00
58554;DHT22;48119;53.218;6.576;2023-02-28T14:54:51;9.80;90.00
58554;DHT22;48119;53.218;6.576;2023-02-28T14:57:29;9.70;89.80
58554;DHT22;48119;53.218;6.576;2023-02-28T15:00:22;9.70;88.60
58554;DHT22;48119;53.218;6.576;2023-02-28T15:03:19;9.70;88.00
58554;DHT22;48119;53.218;6.576;2023-02-28T15:05:57;9.70;88.40
58554;DHT22;48119;53.218;6.576;2023-02-28T15:08:26;9.70;88.20
58554;DHT22;48119;53.218;6.576;2023-02-28T15:11:13;9.70;88.90
58554;DHT22;48119;53.218;6.576;2023-02-28T15:13:42;9.70;88.30
58554;DHT22;48119;53.218;6.576;2023-02-28T15:16:13;9.60;89.00
58554;DHT22;48119;53.218;6.576;2023-02-28T15:18:57;9.70;90.00
58554;DHT22;48119;53.218;6.576;2023-02-28T15:24:49;9.70;90.20
58554;DHT22;48119;53.218;6.576;2023-02-28T15:27:26;9.70;89.40
58554;DHT22;48119;53.218;6.576;2023-02-28T15:30:16;9.70;89.90
58554;DHT22;48119;53.218;6.576;2023-02-28T15:35:44;9.70;87.90
58554;DHT22;48119;53.218;6.576;2023-02-28T15:38:23;9.70;88.30
58554;DHT22;48119;53.218;6.576;2023-02-28T15:40:54;9.70;87.30
58554;DHT22;48119;53.218;6.576;2023-02-28T15:43:32;9.70;87.70
58554;DHT22;48119;53.218;6.576;2023-02-28T15:46:04;9.70;87.60
58554;DHT22;48119;53.218;6.576;2023-02-28T15:48:36;9.70;88.10
58554;DHT22;48119;53.218;6.576;2023-02-28T15:51:23;9.70;88.20
58554;DHT22;48119;53.218;6.576;2023-02-28T15:56:34;9.70;88.50
58554;DHT22;48119;53.218;6.576;2023-02-28T15:59:06;9.70;88.20
58554;DHT22;48119;53.218;6.576;2023-02-28T16:01:36;9.70;88.50
58554;DHT22;48119;53.218;6.576;2023-02-28T16:04:14;9.70;88.70
58554;DHT22;48119;53.218;6.576;2023-02-28T16:07:01;9.70;88.90
58554;DHT22;48119;53.218;6.576;2023-02-28T16:09:27;9.70;89.00
58554;DHT22;48119;53.218;6.576;2023-02-28T16:11:56;9.70;89.40
58554;DHT22;48119;53.218;6.576;2023-02-28T16:14:27;9.70;89.80
58554;DHT22;48119;53.218;6.576;2023-02-28T16:17:04;9.70;90.00
58554;DHT22;48119;53.218;6.576;2023-02-28T16:19:30;9.70;90.00
58554;DHT22;48119;53.218;6.576;2023-02-28T16:21:59;9.60;90.00
58554;DHT22;48119;53.218;6.576;2023-02-28T16:24:27;9.70;90.20
58554;DHT22;48119;53.218;6.576;2023-02-28T16:26:55;9.70;90.40
58554;DHT22;48119;53.218;6.576;2023-02-28T16:29:29;9.60;90.50
58554;DHT22;48119;53.218;6.576;2023-02-28T16:31:58;9.60;90.70
58554;DHT22;48119;53.218;6.576;2023-02-28T16:34:27;9.60;90.70
58554;DHT22;48119;53.218;6.576;2023-02-28T16:36:53;9.60;90.70
58554;DHT22;48119;53.218;6.576;2023-02-28T16:39:19;9.60;90.70
58554;DHT22;48119;53.218;6.576;2023-02-28T16:41:49;9.50;90.60
58554;DHT22;48119;53.218;6.576;2023-02-28T16:44:34;9.60;90.80
58554;DHT22;48119;53.218;6.576;2023-02-28T16:47:04;9.60;90.80
58554;DHT22;48119;53.218;6.576;2023-02-28T16:49:30;9.60;90.90
58554;DHT22;48119;53.218;6.576;2023-02-28T16:51:58;9.50;90.80
58554;DHT22;48119;53.218;6.576;2023-02-28T16:54:24;9.50;90.90
58554;DHT22;48119;53.218;6.576;2023-02-28T16:56:50;9.40;90.90
58554;DHT22;48119;53.218;6.576;2023-02-28T16:59:22;9.40;91.00
58554;DHT22;48119;53.218;6.576;2023-02-28T17:01:49;9.40;91.00
58554;DHT22;48119;53.218;6.576;2023-02-28T17:04:15;9.40;91.10
58554;DHT22;48119;53.218;6.576;2023-02-28T17:06:47;9.40;91.20
58554;DHT22;48119;53.218;6.576;2023-02-28T17:09:31;9.40;91.30
58554;DHT22;48119;53.218;6.576;2023-02-28T17:11:57;9.40;91.30
58554;DHT22;48119;53.218;6.576;2023-02-28T17:14:23;9.40;91.80
58554;DHT22;48119;53.218;6.576;2023-02-28T17:16:49;9.40;91.40
58554;DHT22;48119;53.218;6.576;2023-02-28T17:19:16;9.30;91.40
58554;DHT22;48119;53.218;6.576;2023-02-28T17:21:43;9.30;91.50
58554;DHT22;48119;53.218;6.576;2023-02-28T17:24:10;9.30;91.60
58554;DHT22;48119;53.218;6.576;2023-02-28T17:26:41;9.40;91.70
58554;DHT22;48119;53.218;6.576;2023-02-28T17:29:19;9.30;91.60
58554;DHT22;48119;53.218;6.576;2023-02-28T17:31:46;9.30;91.60
58554;DHT22;48119;53.218;6.576;2023-02-28T17:34:12;9.30;91.70
58554;DHT22;48119;53.218;6.576;2023-02-28T17:36:44;9.30;91.70
58554;DHT22;48119;53.218;6.576;2023-02-28T17:39:12;9.20;91.70
58554;DHT22;48119;53.218;6.576;2023-02-28T17:41:40;9.20;91.70
58554;DHT22;48119;53.218;6.576;2023-02-28T17:44:08;9.20;91.80
58554;DHT22;48119;53.218;6.576;2023-02-28T17:46:34;9.20;91.80
58554;DHT22;48119;53.218;6.576;2023-02-28T17:49:00;9.20;91.90
58554;DHT22;48119;53.218;6.576;2023-02-28T17:51:29;9.20;91.90
58554;DHT22;48119;53.218;6.576;2023-02-28T17:53:57;9.20;91.90
58554;DHT22;48119;53.218;6.576;2023-02-28T17:56:25;9.10;92.00
58554;DHT22;48119;53.218;6.576;2023-02-28T17:58:52;9.10;92.40
58554;DHT22;48119;53.218;6.576;2023-02-28T18:01:19;9.10;93.10
58554;DHT22;48119;53.218;6.576;2023-02-28T18:03:46;9.10;93.40
58554;DHT22;48119;53.218;6.576;2023-02-28T18:06:18;9.10;93.80
58554;DHT22;48119;53.218;6.576;2023-02-28T18:08:45;9.10;94.20
58554;DHT22;48119;53.218;6.576;2023-02-28T18:11:12;9.10;94.60
58554;DHT22;48119;53.218;6.576;2023-02-28T18:13:46;9.10;95.00
58554;DHT22;48119;53.218;6.576;2023-02-28T18:16:15;9.00;95.20
58554;DHT22;48119;53.218;6.576;2023-02-28T18:18:42;9.10;95.50
58554;DHT22;48119;53.218;6.576;2023-02-28T18:21:10;9.10;95.70
58554;DHT22;48119;53.218;6.576;2023-02-28T18:23:36;9.00;95.90
58554;DHT22;48119;53.218;6.576;2023-02-28T18:26:06;9.00;96.10
58554;DHT22;48119;53.218;6.576;2023-02-28T18:28:40;9.00;96.30
58554;DHT22;48119;53.218;6.576;2023-02-28T18:31:12;9.00;96.30